»·PEaware :: DAL621 KSLC-KSAN

DAL621 :: KSLC-KSAN

FLIGHT INFORMATION

Flight Status: Arrived
Operator:
Delta Air Lines
More flights by this operator :: More flights under this callsign
Pilot: Anonymous 21174 (21174)
Aircraft: BOEING 767-300
(B763)
More flights by this aircraft type
Origin: KSLC Salt Lake City Intl
United States
Destination: KSAN San Diego Intl-Lindbergh
United States
More flights between these airports :: More routes between these airports
Route: +ARCHZ1 WINEN LAKRR Q73 LVELL LUCKI1
File this flight plan on PilotEdge
Remarks: RMK / SIMBRIEF
Altitude:
(Current/Filed)
38,000ft
Speed:
(Current/Filed)
449kts
Departed: 21-Oct-20 05:16 PM
Arrived: 21-Oct-20 06:45 PM
Distance/Time
Traveled:
544nm/1:29
Distance/Time
To Go:
Arrived

Flight Plot

Page will automatically refresh every two minutes.

Flight plan parsing failed; only flown route is shown


Map Options




Map Legend


Flown Route
Filed Route
Departure Airport
Arrival Airport
Navaid (VOR, NDB)
Fix

Horizontal Profiles

Position Reports

Time Latitude Longitude Heading Altitude Ground
Speed
21-Oct-20 17:02 40.785565 -111.978041 227 4230ft 0kts
21-Oct-20 17:03 40.785565 -111.978041 227 4230ft 0kts
21-Oct-20 17:04 40.785592 -111.978002 237 4229ft 4kts
21-Oct-20 17:05 40.785874 -111.977245 243 4229ft 2kts
21-Oct-20 17:06 40.786154 -111.976637 192 4228ft 2kts
21-Oct-20 17:07 40.786251 -111.976629 174 4228ft 0kts
21-Oct-20 17:08 40.786251 -111.976629 174 4228ft 0kts
21-Oct-20 17:09 40.785454 -111.976533 174 4229ft 7kts
21-Oct-20 17:10 40.781833 -111.976138 174 4231ft 19kts
21-Oct-20 17:11 40.774967 -111.975284 163 4231ft 15kts
21-Oct-20 17:12 40.774588 -111.974792 80 4231ft 0kts
21-Oct-20 17:13 40.774588 -111.974792 80 4231ft 0kts
21-Oct-20 17:14 40.774879 -111.973402 40 4231ft 14kts
21-Oct-20 17:15 40.796271 -111.975697 353 4247ft 155kts
21-Oct-20 17:16 40.826874 -112.022078 291 6365ft 206kts
21-Oct-20 17:17 40.848797 -112.100471 291 8797ft 248kts
21-Oct-20 17:18 40.862278 -112.195617 250 10326ft 318kts
21-Oct-20 17:19 40.788646 -112.261131 198 13812ft 347kts
21-Oct-20 17:20 40.691841 -112.285878 192 17115ft 365kts
21-Oct-20 17:21 40.589460 -112.306707 193 20163ft 381kts
21-Oct-20 17:22 40.486134 -112.343845 201 22750ft 398kts
21-Oct-20 17:23 40.376601 -112.388634 201 25015ft 423kts
21-Oct-20 17:24 40.261342 -112.435585 198 27199ft 444kts
21-Oct-20 17:25 40.145683 -112.494011 208 29773ft 450kts
21-Oct-20 17:26 40.034868 -112.571550 208 32119ft 454kts
21-Oct-20 17:27 39.924071 -112.649192 208 34401ft 448kts
21-Oct-20 17:28 39.814710 -112.725562 207 36198ft 443kts
21-Oct-20 17:29 39.705746 -112.801384 207 37488ft 443kts
21-Oct-20 17:30 39.589751 -112.855118 197 37916ft 441kts
21-Oct-20 17:31 39.472634 -112.901736 202 38074ft 436kts
21-Oct-20 17:32 39.356886 -112.947808 202 38085ft 434kts
21-Oct-20 17:33 39.240968 -112.993649 202 38087ft 435kts
21-Oct-20 17:34 39.124649 -113.039480 202 38091ft 436kts
21-Oct-20 17:35 39.008425 -113.085120 201 38091ft 436kts
21-Oct-20 17:36 38.892253 -113.130583 201 38083ft 436kts
21-Oct-20 17:37 38.775115 -113.176262 201 38080ft 437kts
21-Oct-20 17:38 38.658618 -113.221540 201 38081ft 438kts
21-Oct-20 17:39 38.541559 -113.266878 200 38080ft 438kts
21-Oct-20 17:40 38.424476 -113.312074 200 38081ft 439kts
21-Oct-20 17:41 38.307120 -113.357222 200 38080ft 439kts
21-Oct-20 17:42 38.189881 -113.402168 199 38080ft 439kts
21-Oct-20 17:43 38.072805 -113.446910 199 38081ft 440kts
21-Oct-20 17:44 37.955428 -113.491621 199 38081ft 440kts
21-Oct-20 17:45 37.839003 -113.541094 201 38087ft 439kts
21-Oct-20 17:46 37.723105 -113.591475 201 38098ft 439kts
21-Oct-20 17:48 37.607381 -113.641599 201 38098ft 439kts
21-Oct-20 17:49 37.491228 -113.691743 200 38101ft 439kts
21-Oct-20 17:50 37.375904 -113.741362 200 38101ft 438kts
21-Oct-20 17:51 37.259995 -113.791077 200 38099ft 438kts
21-Oct-20 17:52 37.144401 -113.840486 200 38046ft 437kts
21-Oct-20 17:53 37.028906 -113.889700 200 38027ft 437kts
21-Oct-20 17:54 36.913699 -113.938634 200 38027ft 437kts
21-Oct-20 17:55 36.797733 -113.987731 200 38027ft 436kts
21-Oct-20 17:56 36.681903 -114.036616 199 38021ft 439kts
21-Oct-20 17:57 36.566141 -114.085312 199 38022ft 438kts
21-Oct-20 17:58 36.450256 -114.133906 199 38010ft 437kts
21-Oct-20 17:59 36.334497 -114.182299 199 37985ft 437kts
21-Oct-20 18:00 36.218983 -114.230435 199 37961ft 437kts
21-Oct-20 18:01 36.105028 -114.280995 209 37954ft 435kts
21-Oct-20 18:02 36.016280 -114.382432 228 37952ft 433kts
21-Oct-20 18:03 35.935293 -114.493945 229 37947ft 432kts
21-Oct-20 18:03 35.868346 -114.586230 229 37860ft 432kts
21-Oct-20 18:05 35.774029 -114.715859 228 37863ft 434kts
21-Oct-20 18:05 35.706498 -114.808341 228 37862ft 434kts
21-Oct-20 18:07 35.611904 -114.937772 228 37857ft 435kts
21-Oct-20 18:07 35.544152 -115.030285 228 37868ft 436kts
21-Oct-20 18:08 35.440921 -115.106888 200 37869ft 441kts
21-Oct-20 18:09 35.324828 -115.156256 200 37859ft 440kts
21-Oct-20 18:10 35.209058 -115.204545 200 37805ft 439kts
21-Oct-20 18:11 35.092823 -115.252835 200 37802ft 439kts
21-Oct-20 18:12 34.977284 -115.300698 200 37797ft 438kts
21-Oct-20 18:13 34.861665 -115.348440 200 37797ft 437kts
21-Oct-20 18:14 34.746287 -115.395944 201 37797ft 436kts
21-Oct-20 18:15 34.631300 -115.443153 201 37845ft 435kts
21-Oct-20 18:16 34.516369 -115.490200 201 37924ft 435kts
21-Oct-20 18:17 34.401158 -115.537227 201 37924ft 434kts
21-Oct-20 18:18 34.287986 -115.583273 202 36383ft 420kts
21-Oct-20 18:19 34.178974 -115.629502 205 34594ft 412kts
21-Oct-20 18:20 34.072093 -115.680143 204 32806ft 413kts
21-Oct-20 18:21 33.964706 -115.730736 203 31015ft 414kts
21-Oct-20 18:22 33.858247 -115.782086 204 29258ft 404kts
21-Oct-20 18:23 33.755081 -115.832327 203 27570ft 394kts
21-Oct-20 18:24 33.653902 -115.879662 203 26008ft 385kts
21-Oct-20 18:25 33.554809 -115.925938 202 24463ft 376kts
21-Oct-20 18:26 33.480542 -116.005028 234 22863ft 354kts
21-Oct-20 18:27 33.424212 -116.101147 235 21241ft 347kts
21-Oct-20 18:28 33.369544 -116.195045 235 19707ft 340kts
21-Oct-20 18:29 33.302010 -116.270389 208 18102ft 337kts
21-Oct-20 18:30 33.218303 -116.319891 207 16284ft 330kts
21-Oct-20 18:31 33.136231 -116.367930 207 14531ft 324kts
21-Oct-20 18:32 33.056109 -116.414702 206 12936ft 318kts
21-Oct-20 18:33 32.980574 -116.469631 220 11462ft 322kts
21-Oct-20 18:34 32.912351 -116.538287 220 10294ft 313kts
21-Oct-20 18:35 32.848918 -116.602165 220 9538ft 283kts
21-Oct-20 18:36 32.787373 -116.664122 219 8325ft 282kts
21-Oct-20 18:37 32.744458 -116.740294 240 7131ft 276kts
21-Oct-20 18:38 32.707168 -116.819988 246 5954ft 271kts
21-Oct-20 18:39 32.681076 -116.904053 250 4803ft 266kts
21-Oct-20 18:40 32.681512 -116.980776 288 3555ft 242kts
21-Oct-20 18:41 32.700668 -117.054752 286 2642ft 215kts
21-Oct-20 18:42 32.715508 -117.115396 286 1815ft 168kts
21-Oct-20 18:43 32.727195 -117.162690 287 519ft 139kts
21-Oct-20 18:44 32.736361 -117.201325 274 28ft 25kts
21-Oct-20 18:45 32.735420 -117.202294 196 28ft 0kts
21-Oct-20 18:46 32.735163 -117.202384 195 28ft 4kts
21-Oct-20 18:47 32.734232 -117.203185 259 28ft 1kts

Navigation Log

Ident Type
Flight plan parsing failed, navigation log unavailable